MM-0005 weather

Shinbweyang Airport
Shinbweyang, Kachin State, Burma

Public forecast

Using degrees Celsius for public forecast. Weather courtesy of forecast.io.

METAR (pilot weather report)

Report is more than 6 hours old.

Closest report is Dibrugarh Airport, 79.8 nm (147.8 km) NW. Retrieved 2019/08/23 12:30 UTC (9 hours ago):

VEMN 231230Z 03004KT 5000 HZ SCT020 BKN100 28/25 Q1004 NOSIG

TAF (pilot weather forecast)

Forecast is more than 6 hours old.

Closest forecast is Jorhat Airport, 109.2 nm (202.2 km) W. Retrieved 2019/08/23 12:30 UTC (9 hours ago):

TAF VEJT 230930Z 2312/2324 02005KT 6000 SCT025 FEW030TCU BKN080 TEMPO 2316/2319 4000 RA SCT020 SCT025 BKN080 TEMPO 2321/2324 25010KT 3000 TSRA SCT020 FEW025TCU/CB BKN080